Overview Statistics Trail Chart Weather Telemetry Raw packets
 

This is the latest recevied weather packets stored in our database for station/object HS5XHC-1. If no packets are shown the sender has not sent any weather packets the latest 10 day(s).

<< 52 53 54 55 56 >>
Time Temp. Humidity Pressure Rain* Wind** Luminosity Snow
1777046960 33.33° C 37% 965 hPa - - 0 W/m² -
1777046336 33.33° C 39% 965 hPa - - 0 W/m² -
1777045712 33.33° C 38% 965 hPa - - 0 W/m² -
1777045088 33.33° C 37% 965 hPa - - 0 W/m² -
1777044465 33.33° C 37% 965 hPa - - 0 W/m² -
1777043841 33.89° C 37% 965 hPa - - 0 W/m² -
1777043217 33.89° C 35% 965 hPa - - 0 W/m² -
1777042593 33.89° C 35% 965 hPa - - 0 W/m² -
1777041968 34.44° C 34% 965 hPa - - 0 W/m² -
1777041345 34.44° C 33% 964 hPa - - 0 W/m² -
1777040721 33.89° C 35% 964 hPa - - 0 W/m² -
1777040097 34.44° C 35% 964 hPa - - 0 W/m² -
1777039473 33.89° C 35% 964 hPa - - 0 W/m² -
1777038849 33.33° C 35% 964 hPa - - 0 W/m² -
1777038225 35° C 32% 964 hPa - - 0 W/m² -
1777037601 36.11° C 28% 964 hPa - - 0 W/m² -
1777036977 36.11° C 27% 963 hPa - - 0 W/m² -
1777036353 36.11° C 27% 963 hPa - - 0 W/m² -
1777035729 36.11° C 27% 963 hPa - - 0 W/m² -
1777035105 36.11° C 27% 963 hPa - - 0 W/m² -
1777034481 36.67° C 28% 963 hPa - - 0 W/m² -
1777033857 36.67° C 27% 963 hPa - - 0 W/m² -
1777033233 36.67° C 27% 962 hPa - - 0 W/m² -
1777032609 36.67° C 27% 962 hPa - - 0 W/m² -
1777031985 36.67° C 27% 962 hPa - - 0 W/m² -

* Rain since midnight (hover to see other rain measurements)
** Current wind speed in m/s (hover to see current wind gust speed)